createdAt,value
2018-04-08T00:01:51.619Z,13.95
2018-04-08T00:02:51.651Z,13.84
2018-04-08T00:04:44.526Z,13.89
2018-04-08T00:05:44.544Z,13.84
2018-04-08T00:07:37.553Z,13.87
2018-04-08T00:08:37.471Z,13.91
2018-04-08T00:10:30.374Z,13.95
2018-04-08T00:11:30.394Z,13.88
2018-04-08T00:13:23.314Z,13.89
2018-04-08T00:14:23.317Z,13.88
2018-04-08T00:16:16.280Z,13.91
2018-04-08T00:17:16.297Z,13.79
2018-04-08T00:19:09.166Z,13.77
2018-04-08T00:20:09.167Z,13.77
2018-04-08T00:22:02.090Z,13.75
2018-04-08T00:23:02.142Z,13.75
2018-04-08T00:24:55.040Z,13.77
2018-04-08T00:25:55.061Z,13.78
2018-04-08T00:27:47.942Z,13.77
2018-04-08T00:28:47.947Z,13.75
2018-04-08T00:30:40.847Z,13.67
2018-04-08T00:31:40.870Z,13.66
2018-04-08T00:33:33.791Z,13.62
2018-04-08T00:34:33.812Z,13.62
2018-04-08T00:36:26.696Z,13.51
2018-04-08T00:37:26.716Z,13.49
2018-04-08T00:39:19.769Z,13.41
2018-04-08T00:40:19.769Z,13.36
2018-04-08T00:42:12.694Z,13.29
2018-04-08T00:43:12.696Z,13.36
2018-04-08T00:45:05.599Z,13.30
2018-04-08T00:46:05.623Z,13.28
2018-04-08T00:47:58.542Z,13.25
2018-04-08T00:48:58.545Z,13.36
2018-04-08T00:50:51.449Z,13.30
2018-04-08T00:51:51.474Z,13.29
2018-04-08T00:53:44.390Z,13.29
2018-04-08T00:54:44.392Z,13.25
2018-04-08T00:56:37.291Z,13.26
2018-04-08T00:57:37.314Z,13.30
2018-04-08T00:59:30.234Z,13.32
2018-04-08T01:00:30.237Z,13.42
2018-04-08T01:02:23.162Z,13.44
2018-04-08T01:03:23.160Z,13.52
2018-04-08T01:05:16.063Z,13.64
2018-04-08T01:06:16.082Z,13.59
2018-04-08T01:08:09.004Z,13.59
2018-04-08T01:09:09.008Z,13.59
2018-04-08T01:11:01.911Z,13.39
2018-04-08T01:12:01.971Z,13.45
2018-04-08T01:13:54.851Z,13.38
2018-04-08T01:14:54.860Z,13.29
2018-04-08T01:16:47.759Z,13.23
2018-04-08T01:17:47.778Z,13.29
2018-04-08T01:19:40.700Z,13.17
2018-04-08T01:20:40.702Z,13.20
2018-04-08T01:22:33.638Z,13.07
2018-04-08T01:23:33.629Z,13.05
2018-04-08T01:25:26.530Z,13.00
2018-04-08T01:26:26.550Z,13.00
2018-04-08T01:28:19.483Z,12.90
2018-04-08T01:29:19.474Z,12.86
2018-04-08T01:31:12.376Z,12.82
2018-04-08T01:32:12.401Z,12.74
2018-04-08T01:34:05.327Z,12.77
2018-04-08T01:35:05.324Z,12.71
2018-04-08T01:36:58.224Z,12.68
2018-04-08T01:37:58.245Z,12.68
2018-04-08T01:39:51.166Z,12.62
2018-04-08T01:40:51.167Z,12.62
2018-04-08T01:42:44.089Z,12.70
2018-04-08T01:43:44.090Z,12.65
2018-04-08T01:45:36.993Z,12.74
2018-04-08T01:46:44.131Z,12.68
2018-04-08T01:48:29.939Z,12.70
2018-04-08T01:49:29.937Z,12.57
2018-04-08T01:51:22.843Z,12.59
2018-04-08T01:52:22.864Z,12.62
2018-04-08T01:54:15.781Z,12.65
2018-04-08T01:55:15.783Z,12.62
2018-04-08T01:57:08.685Z,12.54
2018-04-08T01:58:08.704Z,12.49
2018-04-08T02:00:01.629Z,12.50
2018-04-08T02:01:01.628Z,12.49
2018-04-08T02:02:54.564Z,12.49
2018-04-08T02:03:54.549Z,12.37
2018-04-08T02:05:47.451Z,12.47
2018-04-08T02:06:47.471Z,12.54
2018-04-08T02:08:40.397Z,12.49
2018-04-08T02:09:40.397Z,12.49
2018-04-08T02:11:33.299Z,12.46
2018-04-08T02:12:33.319Z,12.42
2018-04-08T02:14:26.241Z,12.31
2018-04-08T02:15:26.243Z,12.27
2018-04-08T02:17:19.145Z,12.21
2018-04-08T02:18:19.163Z,12.27
2018-04-08T02:20:12.082Z,12.19
2018-04-08T02:21:12.084Z,12.23
2018-04-08T02:23:05.024Z,12.23
2018-04-08T02:24:05.008Z,12.31
2018-04-08T02:25:57.908Z,12.24
2018-04-08T02:26:57.929Z,12.28
2018-04-08T02:28:50.846Z,12.31
2018-04-08T02:29:50.849Z,12.19
2018-04-08T02:31:43.751Z,12.16
2018-04-08T02:32:43.773Z,12.28
2018-04-08T02:34:36.694Z,12.13
2018-04-08T02:35:36.697Z,12.10
2018-04-08T02:37:29.602Z,12.02
2018-04-08T02:38:29.620Z,11.96
2018-04-08T02:40:22.542Z,11.98
2018-04-08T02:41:22.545Z,11.96
2018-04-08T02:43:15.474Z,11.95
2018-04-08T02:44:15.462Z,11.88
2018-04-08T02:46:08.364Z,11.96
2018-04-08T02:47:08.382Z,11.90
2018-04-08T02:49:01.311Z,11.91
2018-04-08T02:50:01.310Z,11.85
2018-04-08T02:51:54.210Z,11.88
2018-04-08T02:52:54.228Z,11.85
2018-04-08T02:54:47.150Z,11.86
2018-04-08T02:55:47.151Z,11.83
2018-04-08T02:57:40.053Z,11.85
2018-04-08T02:58:40.070Z,11.76
2018-04-08T03:00:32.990Z,11.75
2018-04-08T03:01:32.991Z,11.75
2018-04-08T03:03:25.892Z,11.79
2018-04-08T03:04:25.916Z,11.78
2018-04-08T03:06:18.837Z,11.72
2018-04-08T03:07:18.836Z,11.76
2018-04-08T03:09:11.755Z,11.76
2018-04-08T03:10:11.755Z,11.73
2018-04-08T03:12:04.665Z,11.72
2018-04-08T03:13:04.676Z,11.79
2018-04-08T03:14:57.598Z,11.72
2018-04-08T03:15:57.599Z,11.70
2018-04-08T03:17:50.498Z,11.70
2018-04-08T03:18:50.515Z,11.70
2018-04-08T03:20:43.439Z,11.78
2018-04-08T03:21:43.442Z,11.73
2018-04-08T03:23:36.381Z,11.75
2018-04-08T03:24:36.368Z,11.76
2018-04-08T03:26:29.268Z,11.73
2018-04-08T03:27:29.286Z,11.69
2018-04-08T03:29:22.211Z,11.72
2018-04-08T03:30:22.214Z,11.67
2018-04-08T03:32:15.114Z,11.62
2018-04-08T03:33:15.134Z,11.55
2018-04-08T03:35:08.052Z,11.44
2018-04-08T03:36:08.055Z,11.47
2018-04-08T03:38:00.953Z,11.39
2018-04-08T03:39:00.975Z,11.39
2018-04-08T03:40:53.910Z,11.40
2018-04-08T03:41:53.903Z,11.40
2018-04-08T03:43:46.805Z,11.42
2018-04-08T03:44:46.828Z,11.46
2018-04-08T03:46:39.744Z,11.44
2018-04-08T03:47:39.741Z,11.44
2018-04-08T03:49:32.662Z,11.40
2018-04-08T03:50:32.660Z,11.36
2018-04-08T03:52:25.559Z,11.42
2018-04-08T03:53:25.579Z,11.37
2018-04-08T03:55:18.500Z,11.35
2018-04-08T03:56:18.499Z,11.35
2018-04-08T03:58:12.393Z,11.33
2018-04-08T03:59:12.411Z,11.29
2018-04-08T04:01:05.333Z,11.33
2018-04-08T04:02:05.333Z,11.37
2018-04-08T04:03:58.235Z,11.39
2018-04-08T04:04:58.255Z,11.32
2018-04-08T04:06:51.172Z,11.33
2018-04-08T04:07:51.178Z,11.29
2018-04-08T04:09:44.092Z,11.24
2018-04-08T04:10:44.091Z,11.24
2018-04-08T04:12:36.993Z,11.29
2018-04-08T04:13:37.012Z,11.32
2018-04-08T04:15:29.933Z,11.32
2018-04-08T04:16:29.929Z,11.32
2018-04-08T04:18:22.832Z,11.32
2018-04-08T04:19:22.850Z,11.36
2018-04-08T04:21:15.773Z,11.36
2018-04-08T04:22:15.774Z,11.37
2018-04-08T04:24:08.677Z,11.37
2018-04-08T04:25:08.693Z,11.35
2018-04-08T04:27:01.614Z,11.32
2018-04-08T04:28:01.615Z,11.33
2018-04-08T04:29:54.534Z,11.39
2018-04-08T04:30:54.535Z,11.35
2018-04-08T04:32:47.452Z,11.37
2018-04-08T04:33:47.485Z,11.37
2018-04-08T04:35:40.371Z,11.36
2018-04-08T04:36:40.369Z,11.29
2018-04-08T04:38:33.269Z,11.19
2018-04-08T04:39:33.293Z,11.21
2018-04-08T04:41:26.209Z,11.17
2018-04-08T04:42:26.208Z,11.06
2018-04-08T04:44:19.126Z,11.07
2018-04-08T04:45:19.149Z,11.06
2018-04-08T04:47:12.067Z,11.10
2018-04-08T04:48:12.069Z,11.10
2018-04-08T04:50:05.039Z,11.07
2018-04-08T04:51:04.994Z,11.17
2018-04-08T04:52:57.893Z,11.17
2018-04-08T04:53:57.913Z,11.14
2018-04-08T04:55:50.838Z,11.02
2018-04-08T04:56:50.834Z,11.09
2018-04-08T04:58:43.739Z,11.04
2018-04-08T04:59:43.758Z,11.14
2018-04-08T05:01:36.674Z,11.24
2018-04-08T05:02:36.679Z,11.19
2018-04-08T05:04:29.579Z,11.25
2018-04-08T05:05:29.598Z,11.25
2018-04-08T05:07:22.527Z,11.42
2018-04-08T05:08:22.534Z,11.39
2018-04-08T05:10:15.444Z,11.42
2018-04-08T05:11:15.441Z,11.42
2018-04-08T05:13:08.345Z,11.47
2018-04-08T05:14:08.362Z,11.44
2018-04-08T05:16:01.285Z,11.64
2018-04-08T05:17:01.284Z,11.57
2018-04-08T05:18:54.184Z,11.75
2018-04-08T05:19:54.205Z,11.70
2018-04-08T05:21:47.155Z,11.76
2018-04-08T05:22:47.123Z,11.76
2018-04-08T05:24:40.024Z,11.76
2018-04-08T05:25:40.045Z,11.82
2018-04-08T05:27:32.963Z,11.88
2018-04-08T05:28:32.960Z,11.98
2018-04-08T05:30:25.883Z,11.98
2018-04-08T05:31:25.880Z,12.05
2018-04-08T05:33:18.785Z,12.13
2018-04-08T05:34:18.801Z,12.20
2018-04-08T05:36:11.719Z,12.27
2018-04-08T05:37:11.726Z,12.31
2018-04-08T05:39:04.749Z,12.29
2018-04-08T05:40:04.768Z,12.38
2018-04-08T05:41:57.690Z,12.54
2018-04-08T05:42:57.688Z,12.60
2018-04-08T05:44:50.630Z,12.67
2018-04-08T05:45:50.646Z,12.78
2018-04-08T05:47:43.535Z,12.87
2018-04-08T05:48:43.536Z,12.93
2018-04-08T05:50:36.461Z,13.19
2018-04-08T05:51:36.513Z,13.15
2018-04-08T05:53:29.359Z,13.41
2018-04-08T05:54:29.379Z,13.51
2018-04-08T05:56:22.303Z,13.81
2018-04-08T05:57:22.308Z,13.78
2018-04-08T05:59:15.253Z,13.87
2018-04-08T06:00:15.264Z,14.04
2018-04-08T06:02:08.153Z,14.22
2018-04-08T06:03:08.156Z,14.37
2018-04-08T06:05:01.057Z,14.62
2018-04-08T06:06:01.078Z,14.80
2018-04-08T06:07:54.020Z,15.09
2018-04-08T06:08:54.023Z,15.17
2018-04-08T06:10:46.944Z,15.32
2018-04-08T06:11:46.948Z,15.35
2018-04-08T06:13:39.860Z,15.41
2018-04-08T06:14:39.875Z,15.47
2018-04-08T06:16:32.805Z,15.71
2018-04-08T06:17:32.836Z,15.86
2018-04-08T06:19:25.710Z,16.14
2018-04-08T06:20:25.773Z,16.27
2018-04-08T06:22:18.660Z,16.67
2018-04-08T06:23:18.664Z,17.08
2018-04-08T06:25:11.621Z,17.41
2018-04-08T06:26:11.608Z,17.63
2018-04-08T06:28:04.520Z,17.96
2018-04-08T06:29:04.534Z,18.29
2018-04-08T06:30:57.453Z,18.67
2018-04-08T06:31:57.457Z,18.98
2018-04-08T06:33:50.364Z,19.37
2018-04-08T06:34:50.391Z,19.44
2018-04-08T06:36:43.319Z,19.74
2018-04-08T06:37:43.327Z,19.88
2018-04-08T06:39:36.246Z,20.16
2018-04-08T06:40:36.276Z,19.99
2018-04-08T06:42:29.210Z,19.92
2018-04-08T06:43:29.263Z,19.88
2018-04-08T06:45:22.131Z,19.95
2018-04-08T06:46:22.160Z,19.96
2018-04-08T06:48:15.088Z,19.96
2018-04-08T06:49:15.099Z,19.96
2018-04-08T06:51:08.028Z,20.01
2018-04-08T06:52:08.034Z,19.99
2018-04-08T06:54:00.947Z,20.01
2018-04-08T06:55:00.973Z,19.95
2018-04-08T06:56:53.906Z,19.80
2018-04-08T06:57:53.919Z,19.68
2018-04-08T06:59:46.880Z,19.69
2018-04-08T07:00:46.887Z,19.73
2018-04-08T07:02:39.793Z,19.66
2018-04-08T07:03:39.803Z,19.66
2018-04-08T07:05:32.717Z,19.86
2018-04-08T07:06:32.747Z,19.86
2018-04-08T07:08:25.680Z,19.83
2018-04-08T07:09:25.690Z,19.76
2018-04-08T07:11:18.730Z,19.69
2018-04-08T07:12:18.632Z,19.81
2018-04-08T07:14:11.542Z,19.95
2018-04-08T07:15:11.573Z,20.10
2018-04-08T07:17:04.501Z,20.16
2018-04-08T07:18:04.514Z,20.17
2018-04-08T07:19:57.423Z,20.11
2018-04-08T07:20:57.454Z,20.16
2018-04-08T07:22:50.382Z,20.21
2018-04-08T07:23:50.388Z,20.16
2018-04-08T07:25:43.507Z,20.51
2018-04-08T07:26:43.533Z,20.61
2018-04-08T07:28:36.465Z,20.82
2018-04-08T07:29:36.478Z,20.84
2018-04-08T07:31:29.412Z,21.03
2018-04-08T07:32:29.420Z,21.17
2018-04-08T07:34:22.336Z,21.25
2018-04-08T07:35:22.365Z,21.17
2018-04-08T07:37:15.304Z,21.29
2018-04-08T07:38:15.304Z,21.38
2018-04-08T07:40:08.223Z,21.28
2018-04-08T07:41:08.250Z,21.17
2018-04-08T07:43:01.184Z,21.17
2018-04-08T07:44:01.188Z,21.12
2018-04-08T07:45:54.107Z,21.24
2018-04-08T07:46:54.134Z,21.19
2018-04-08T07:48:47.067Z,20.97
2018-04-08T07:49:47.074Z,20.99
2018-04-08T07:51:40.013Z,20.97
2018-04-08T07:52:40.021Z,20.99
2018-04-08T07:54:32.939Z,20.95
2018-04-08T07:55:32.967Z,21.06
2018-04-08T07:57:25.930Z,21.01
2018-04-08T07:58:25.909Z,21.04
2018-04-08T08:00:18.819Z,20.82
2018-04-08T08:01:18.845Z,20.67
2018-04-08T08:03:11.957Z,20.61
2018-04-08T08:04:11.963Z,20.50
2018-04-08T08:06:04.879Z,20.50
2018-04-08T08:07:04.909Z,20.42
2018-04-08T08:08:57.839Z,20.54
2018-04-08T08:09:57.854Z,20.59
2018-04-08T08:11:50.776Z,20.51
2018-04-08T08:12:50.788Z,20.55
2018-04-08T08:14:43.712Z,20.55
2018-04-08T08:15:43.736Z,20.51
2018-04-08T08:17:36.669Z,20.58
2018-04-08T08:18:36.679Z,20.64
2018-04-08T08:20:29.592Z,20.84
2018-04-08T08:21:29.618Z,20.92
2018-04-08T08:23:22.569Z,20.82
2018-04-08T08:24:22.581Z,20.74
2018-04-08T08:26:15.493Z,20.87
2018-04-08T08:27:15.525Z,20.89
2018-04-08T08:29:08.455Z,20.99
2018-04-08T08:30:08.466Z,21.04
2018-04-08T08:32:01.399Z,21.16
2018-04-08T08:33:01.410Z,21.24
2018-04-08T08:34:54.323Z,21.24
2018-04-08T08:35:54.355Z,21.12
2018-04-08T08:37:47.298Z,21.14
2018-04-08T08:38:47.297Z,20.99
2018-04-08T08:40:40.210Z,21.17
2018-04-08T08:41:40.285Z,21.27
2018-04-08T08:43:33.174Z,21.34
2018-04-08T08:44:33.186Z,21.29
2018-04-08T08:46:26.100Z,21.35
2018-04-08T08:47:26.130Z,21.37
2018-04-08T08:49:19.066Z,21.61
2018-04-08T08:50:19.078Z,21.71
2018-04-08T08:52:12.013Z,21.80
2018-04-08T08:53:12.020Z,21.75
2018-04-08T08:55:05.106Z,21.82
2018-04-08T08:56:05.134Z,21.88
2018-04-08T08:57:58.068Z,22.00
2018-04-08T08:58:58.083Z,21.96
2018-04-08T09:00:51.000Z,21.90
2018-04-08T09:01:51.028Z,21.99
2018-04-08T09:03:43.964Z,22.02
2018-04-08T09:04:43.973Z,22.18
2018-04-08T09:06:36.913Z,22.20
2018-04-08T09:07:36.918Z,22.35
2018-04-08T09:09:29.852Z,22.35
2018-04-08T09:10:29.865Z,22.43
2018-04-08T09:12:22.800Z,22.55
2018-04-08T09:13:22.811Z,22.68
2018-04-08T09:15:15.729Z,22.73
2018-04-08T09:16:15.778Z,22.77
2018-04-08T09:18:08.694Z,22.82
2018-04-08T09:19:08.705Z,22.85
2018-04-08T09:21:01.622Z,22.90
2018-04-08T09:22:01.652Z,23.07
2018-04-08T09:23:54.587Z,23.13
2018-04-08T09:24:54.596Z,23.17
2018-04-08T09:26:47.522Z,23.20
2018-04-08T09:27:47.552Z,23.25
2018-04-08T09:29:40.515Z,23.36
2018-04-08T09:30:40.503Z,23.43
2018-04-08T09:32:33.437Z,23.60
2018-04-08T09:33:33.447Z,23.50
2018-04-08T09:35:26.367Z,23.48
2018-04-08T09:36:26.447Z,23.60
2018-04-08T09:38:19.337Z,23.54
2018-04-08T09:39:19.346Z,23.70
2018-04-08T09:41:12.267Z,23.70
2018-04-08T09:42:12.297Z,23.75
2018-04-08T09:44:05.231Z,23.70
2018-04-08T09:45:05.245Z,23.70
2018-04-08T09:46:58.167Z,23.72
2018-04-08T09:47:58.195Z,23.66
2018-04-08T09:49:51.136Z,23.76
2018-04-08T09:50:51.147Z,23.84
2018-04-08T09:52:44.086Z,23.98
2018-04-08T09:53:44.100Z,24.05
2018-04-08T09:55:37.023Z,24.20
2018-04-08T09:56:37.053Z,24.27
2018-04-08T09:58:29.990Z,24.39
2018-04-08T09:59:30.003Z,24.37
2018-04-08T10:01:22.927Z,24.52
2018-04-08T10:02:22.958Z,24.47
2018-04-08T10:04:15.901Z,24.32
2018-04-08T10:05:15.915Z,24.37
2018-04-08T10:07:08.836Z,24.42
2018-04-08T10:08:08.870Z,24.45
2018-04-08T10:10:01.817Z,24.61
2018-04-08T10:11:01.825Z,24.62
2018-04-08T10:12:54.772Z,24.73
2018-04-08T10:13:54.777Z,24.90
2018-04-08T10:15:47.702Z,24.93
2018-04-08T10:16:47.735Z,25.09
2018-04-08T10:18:40.682Z,25.17
2018-04-08T10:19:40.704Z,25.18
2018-04-08T10:21:33.760Z,25.27
2018-04-08T10:22:33.791Z,25.39
2018-04-08T10:24:26.730Z,25.32
2018-04-08T10:25:26.742Z,25.42
2018-04-08T10:27:19.662Z,25.47
2018-04-08T10:28:19.701Z,25.50
2018-04-08T10:30:12.642Z,25.45
2018-04-08T10:31:12.647Z,25.42
2018-04-08T10:33:05.599Z,25.30
2018-04-08T10:34:05.606Z,25.27
2018-04-08T10:35:58.529Z,25.14
2018-04-08T10:36:58.558Z,25.23
2018-04-08T10:38:51.504Z,25.28
2018-04-08T10:39:51.515Z,25.32
2018-04-08T10:41:44.438Z,25.36
2018-04-08T10:42:44.468Z,25.50
2018-04-08T10:44:37.481Z,25.57
2018-04-08T10:45:37.496Z,25.58
2018-04-08T10:47:30.412Z,25.39
2018-04-08T10:48:30.444Z,25.40
2018-04-08T10:50:23.384Z,25.40
2018-04-08T10:51:23.394Z,25.39
2018-04-08T10:53:16.344Z,25.38
2018-04-08T10:54:16.351Z,25.33
2018-04-08T10:56:09.280Z,25.10
2018-04-08T10:57:09.302Z,25.18
2018-04-08T10:59:02.240Z,25.21
2018-04-08T11:00:02.249Z,25.30
2018-04-08T11:01:55.171Z,25.46
2018-04-08T11:02:55.201Z,25.50
2018-04-08T11:04:48.189Z,25.40
2018-04-08T11:05:48.160Z,25.45
2018-04-08T11:07:41.073Z,25.45
2018-04-08T11:08:41.104Z,25.54
2018-04-08T11:10:34.043Z,25.54
2018-04-08T11:11:34.054Z,25.46
2018-04-08T11:13:26.993Z,25.23
2018-04-08T11:14:27.004Z,25.21
2018-04-08T11:16:19.923Z,25.17
2018-04-08T11:17:19.954Z,25.17
2018-04-08T11:19:12.886Z,25.15
2018-04-08T11:20:12.902Z,25.08
2018-04-08T11:22:05.820Z,25.10
2018-04-08T11:23:05.851Z,25.14
2018-04-08T11:24:58.790Z,25.18
2018-04-08T11:25:58.800Z,25.17
2018-04-08T11:27:51.725Z,25.18
2018-04-08T11:28:51.760Z,25.06
2018-04-08T11:30:44.695Z,25.03
2018-04-08T11:31:44.704Z,25.13
2018-04-08T11:33:37.781Z,25.39
2018-04-08T11:34:37.785Z,25.51
2018-04-08T11:36:30.705Z,25.62
2018-04-08T11:37:30.735Z,25.67
2018-04-08T11:39:23.735Z,25.75
2018-04-08T11:40:27.197Z,25.72
2018-04-08T11:42:16.606Z,25.91
2018-04-08T11:43:16.634Z,25.88
2018-04-08T11:45:10.763Z,25.65
2018-04-08T11:46:09.634Z,25.51
2018-04-08T11:48:02.513Z,25.47
2018-04-08T11:49:02.542Z,25.61
2018-04-08T11:50:55.492Z,25.72
2018-04-08T11:51:55.502Z,25.67
2018-04-08T11:53:48.496Z,25.45
2018-04-08T11:54:48.510Z,25.55
2018-04-08T11:56:41.427Z,25.54
2018-04-08T11:57:41.459Z,25.54
2018-04-08T11:59:34.675Z,25.58
2018-04-08T12:00:34.409Z,25.60
2018-04-08T12:02:27.580Z,25.55
2018-04-08T12:03:27.357Z,25.58
2018-04-08T12:05:22.334Z,25.65
2018-04-08T12:06:22.343Z,25.57
2018-04-08T12:08:15.369Z,25.57
2018-04-08T12:09:15.296Z,25.57
2018-04-08T12:11:08.233Z,25.65
2018-04-08T12:12:08.246Z,25.62
2018-04-08T12:14:01.186Z,25.73
2018-04-08T12:15:01.199Z,25.60
2018-04-08T12:16:54.268Z,25.42
2018-04-08T12:17:54.294Z,25.57
2018-04-08T12:19:47.436Z,25.52
2018-04-08T12:20:47.482Z,25.72
2018-04-08T12:22:40.579Z,25.69
2018-04-08T12:23:40.612Z,25.67
2018-04-08T12:25:33.790Z,25.77
2018-04-08T12:26:33.822Z,25.92
2018-04-08T12:28:26.894Z,25.99
2018-04-08T12:29:26.925Z,26.07
2018-04-08T12:31:19.887Z,26.06
2018-04-08T12:32:19.876Z,26.10
2018-04-08T12:34:12.820Z,26.13
2018-04-08T12:35:12.830Z,26.10
2018-04-08T12:37:05.752Z,26.10
2018-04-08T12:38:05.780Z,25.98
2018-04-08T12:39:58.934Z,26.12
2018-04-08T12:40:58.945Z,25.97
2018-04-08T12:42:52.018Z,26.15
2018-04-08T12:43:52.048Z,26.13
2018-04-08T12:45:44.985Z,26.29
2018-04-08T12:46:45.001Z,26.36
2018-04-08T12:48:38.087Z,26.40
2018-04-08T12:49:38.118Z,26.45
2018-04-08T12:51:31.245Z,26.50
2018-04-08T12:52:31.101Z,26.54
2018-04-08T12:54:24.011Z,26.45
2018-04-08T12:55:24.022Z,26.55
2018-04-08T12:57:16.943Z,26.67
2018-04-08T12:58:16.976Z,26.65
2018-04-08T13:00:09.920Z,26.80
2018-04-08T13:01:09.938Z,26.85
2018-04-08T13:03:02.856Z,26.89
2018-04-08T13:04:02.890Z,27.00
2018-04-08T13:05:55.828Z,27.09
2018-04-08T13:06:55.849Z,27.14
2018-04-08T13:08:48.767Z,27.22
2018-04-08T13:09:48.799Z,27.27
2018-04-08T13:11:41.739Z,27.34
2018-04-08T13:12:41.752Z,27.32
2018-04-08T13:14:34.695Z,27.31
2018-04-08T13:15:34.802Z,27.36
2018-04-08T13:17:27.675Z,27.22
2018-04-08T13:18:27.664Z,27.04
2018-04-08T13:20:20.607Z,27.12
2018-04-08T13:21:20.619Z,27.12
2018-04-08T13:23:13.544Z,27.25
2018-04-08T13:24:13.572Z,27.37
2018-04-08T13:26:06.515Z,27.41
2018-04-08T13:27:06.526Z,27.14
2018-04-08T13:28:59.459Z,27.14
2018-04-08T13:29:59.484Z,27.13
2018-04-08T13:31:52.437Z,27.06
2018-04-08T13:32:52.452Z,27.06
2018-04-08T13:34:45.395Z,27.10
2018-04-08T13:35:45.409Z,27.07
2018-04-08T13:37:38.332Z,27.07
2018-04-08T13:38:38.364Z,27.04
2018-04-08T13:40:31.317Z,27.07
2018-04-08T13:41:31.319Z,27.21
2018-04-08T13:43:24.422Z,27.25
2018-04-08T13:44:24.455Z,27.25
2018-04-08T13:46:17.396Z,27.24
2018-04-08T13:47:17.408Z,27.31
2018-04-08T13:49:10.538Z,27.34
2018-04-08T13:50:10.571Z,27.40
2018-04-08T13:52:03.515Z,27.39
2018-04-08T13:53:03.524Z,27.40
2018-04-08T13:54:56.466Z,27.37
2018-04-08T13:55:56.478Z,27.57
2018-04-08T13:57:49.401Z,27.50
2018-04-08T13:58:49.441Z,27.49
2018-04-08T14:00:42.388Z,27.63
2018-04-08T14:01:42.391Z,27.65
2018-04-08T14:03:35.314Z,27.67
2018-04-08T14:04:35.344Z,27.74
2018-04-08T14:06:28.297Z,27.57
2018-04-08T14:07:28.303Z,27.49
2018-04-08T14:09:21.239Z,27.54
2018-04-08T14:10:21.268Z,27.49
2018-04-08T14:12:14.208Z,27.57
2018-04-08T14:13:14.221Z,27.55
2018-04-08T14:15:07.452Z,27.55
2018-04-08T14:16:07.463Z,27.47
2018-04-08T14:18:00.385Z,27.54
2018-04-08T14:19:00.415Z,27.50
2018-04-08T14:20:53.359Z,27.50
2018-04-08T14:21:53.371Z,27.54
2018-04-08T14:23:46.499Z,27.43
2018-04-08T14:24:46.532Z,27.36
2018-04-08T14:26:39.471Z,27.47
2018-04-08T14:27:39.482Z,27.46
2018-04-08T14:29:32.405Z,27.50
2018-04-08T14:30:32.435Z,27.65
2018-04-08T14:32:25.579Z,27.60
2018-04-08T14:33:25.594Z,27.67
2018-04-08T14:35:18.532Z,27.79
2018-04-08T14:36:18.546Z,27.74
2018-04-08T14:38:11.467Z,27.78
2018-04-08T14:39:11.499Z,27.74
2018-04-08T14:41:04.441Z,27.78
2018-04-08T14:42:04.455Z,27.82
2018-04-08T14:43:57.376Z,27.79
2018-04-08T14:44:57.408Z,27.78
2018-04-08T14:46:50.350Z,27.82
2018-04-08T14:47:50.362Z,27.78
2018-04-08T14:49:43.292Z,27.70
2018-04-08T14:50:43.386Z,27.67
2018-04-08T14:52:36.259Z,27.69
2018-04-08T14:53:36.890Z,27.67
2018-04-08T14:55:29.221Z,27.75
2018-04-08T14:56:29.234Z,27.63
2018-04-08T14:58:22.158Z,27.67
2018-04-08T14:59:22.189Z,27.57
2018-04-08T15:01:15.133Z,27.60
2018-04-08T15:02:15.171Z,27.62
2018-04-08T15:04:08.069Z,27.54
2018-04-08T15:05:08.100Z,27.59
2018-04-08T15:07:01.041Z,27.57
2018-04-08T15:08:01.052Z,27.41
2018-04-08T15:09:54.067Z,27.44
2018-04-08T15:10:54.019Z,27.24
2018-04-08T15:12:46.979Z,27.44
2018-04-08T15:13:46.976Z,27.39
2018-04-08T15:15:39.910Z,27.36
2018-04-08T15:16:39.921Z,27.37
2018-04-08T15:18:33.075Z,27.46
2018-04-08T15:19:33.095Z,27.50
2018-04-08T15:21:26.099Z,27.41
2018-04-08T15:22:26.061Z,27.46
2018-04-08T15:24:19.030Z,27.28
2018-04-08T15:25:19.062Z,27.32
2018-04-08T15:27:12.007Z,27.29
2018-04-08T15:28:12.015Z,27.29
2018-04-08T15:30:04.941Z,27.40
2018-04-08T15:31:04.982Z,27.34
2018-04-08T15:32:57.912Z,27.50
2018-04-08T15:33:57.924Z,27.60
2018-04-08T15:35:50.867Z,27.72
2018-04-08T15:36:50.880Z,27.67
2018-04-08T15:38:43.805Z,27.62
2018-04-08T15:39:43.835Z,27.60
2018-04-08T15:41:36.775Z,27.59
2018-04-08T15:42:36.787Z,27.63
2018-04-08T15:44:29.710Z,27.59
2018-04-08T15:45:29.742Z,27.55
2018-04-08T15:47:22.684Z,27.60
2018-04-08T15:48:22.696Z,27.66
2018-04-08T15:50:15.619Z,27.65
2018-04-08T15:51:15.649Z,27.78
2018-04-08T15:53:08.591Z,27.65
2018-04-08T15:54:08.607Z,27.75
2018-04-08T15:56:01.555Z,27.67
2018-04-08T15:57:01.563Z,27.77
2018-04-08T15:58:54.492Z,27.59
2018-04-08T15:59:54.517Z,27.54
2018-04-08T16:01:48.595Z,27.67
2018-04-08T16:02:48.660Z,27.50
2018-04-08T16:04:41.533Z,27.44
2018-04-08T16:05:41.565Z,27.34
2018-04-08T16:07:34.507Z,27.03
2018-04-08T16:08:34.519Z,26.95
2018-04-08T16:10:27.442Z,26.94
2018-04-08T16:11:27.473Z,26.91
2018-04-08T16:13:20.433Z,26.92
2018-04-08T16:14:20.426Z,26.87
2018-04-08T16:16:13.368Z,26.81
2018-04-08T16:17:13.379Z,26.73
2018-04-08T16:19:06.307Z,26.65
2018-04-08T16:20:06.334Z,26.65
2018-04-08T16:21:59.478Z,26.63
2018-04-08T16:22:59.492Z,26.66
2018-04-08T16:24:52.407Z,26.70
2018-04-08T16:25:52.439Z,26.75
2018-04-08T16:27:45.898Z,26.72
2018-04-08T16:28:45.893Z,26.70
2018-04-08T16:30:39.041Z,26.76
2018-04-08T16:31:39.068Z,26.76
2018-04-08T16:33:32.010Z,26.87
2018-04-08T16:34:32.023Z,26.82
2018-04-08T16:36:24.964Z,26.89
2018-04-08T16:37:24.976Z,26.91
2018-04-08T16:39:17.896Z,26.89
2018-04-08T16:40:17.927Z,27.02
2018-04-08T16:42:10.895Z,27.02
2018-04-08T16:43:10.908Z,27.02
2018-04-08T16:45:03.832Z,27.09
2018-04-08T16:46:03.859Z,27.07
2018-04-08T16:47:56.803Z,27.10
2018-04-08T16:48:56.815Z,27.04
2018-04-08T16:50:49.743Z,27.13
2018-04-08T16:51:50.038Z,27.21
2018-04-08T16:53:42.769Z,27.21
2018-04-08T16:54:43.772Z,27.18
2018-04-08T16:56:35.699Z,27.25
2018-04-08T16:57:35.711Z,27.21
2018-04-08T16:59:28.670Z,27.21
2018-04-08T17:00:28.664Z,27.24
2018-04-08T17:02:21.633Z,27.29
2018-04-08T17:03:21.671Z,27.39
2018-04-08T17:05:14.590Z,27.31
2018-04-08T17:06:14.587Z,27.19
2018-04-08T17:08:07.551Z,27.24
2018-04-08T17:09:07.531Z,27.07
2018-04-08T17:11:00.467Z,27.03
2018-04-08T17:12:00.486Z,27.07
2018-04-08T17:13:53.446Z,26.99
2018-04-08T17:14:53.431Z,27.00
2018-04-08T17:16:46.382Z,26.94
2018-04-08T17:17:46.389Z,26.92
2018-04-08T17:19:39.351Z,26.89
2018-04-08T17:20:39.388Z,26.95
2018-04-08T17:22:32.292Z,26.76
2018-04-08T17:23:32.300Z,26.77
2018-04-08T17:25:25.219Z,26.66
2018-04-08T17:26:25.267Z,26.62
2018-04-08T17:28:18.259Z,26.60
2018-04-08T17:29:18.259Z,26.57
2018-04-08T17:31:11.127Z,26.52
2018-04-08T17:32:11.159Z,26.44
2018-04-08T17:34:04.124Z,26.36
2018-04-08T17:35:04.167Z,26.23
2018-04-08T17:36:57.089Z,26.20
2018-04-08T17:37:57.116Z,26.09
2018-04-08T17:39:49.992Z,26.10
2018-04-08T17:40:50.024Z,26.05
2018-04-08T17:42:43.008Z,25.99
2018-04-08T17:43:42.981Z,25.80
2018-04-08T17:45:35.897Z,25.79
2018-04-08T17:46:35.943Z,25.70
2018-04-08T17:48:28.929Z,25.58
2018-04-08T17:49:28.876Z,25.52
2018-04-08T17:51:21.882Z,25.38
2018-04-08T17:52:21.905Z,25.38
2018-04-08T17:54:14.786Z,25.18
2018-04-08T17:55:14.797Z,25.13
2018-04-08T17:57:07.737Z,25.03
2018-04-08T17:58:07.747Z,25.05
2018-04-08T18:00:00.718Z,24.93
2018-04-08T18:01:00.707Z,24.90
2018-04-08T18:02:53.649Z,24.76
2018-04-08T18:03:53.661Z,24.71
2018-04-08T18:05:46.578Z,24.61
2018-04-08T18:06:46.610Z,24.58
2018-04-08T18:08:39.675Z,24.53
2018-04-08T18:09:39.615Z,24.47
2018-04-08T18:11:33.083Z,24.47
2018-04-08T18:12:32.514Z,24.43
2018-04-08T18:14:25.578Z,24.25
2018-04-08T18:15:25.462Z,24.13
2018-04-08T18:17:18.510Z,24.03
2018-04-08T18:18:18.466Z,23.94
2018-04-08T18:20:11.394Z,23.70
2018-04-08T18:21:11.425Z,23.61
2018-04-08T18:23:04.352Z,23.40
2018-04-08T18:24:04.414Z,23.35
2018-04-08T18:25:57.330Z,23.20
2018-04-08T18:26:57.354Z,23.27
2018-04-08T18:28:50.288Z,23.01
2018-04-08T18:29:50.462Z,22.95
2018-04-08T18:31:43.234Z,22.86
2018-04-08T18:32:43.386Z,22.98
2018-04-08T18:34:36.237Z,22.86